sensor_id;sensor_type;location;lat;lon;timestamp;P1;durP1;ratioP1;P2;durP2;ratioP2
20423;SDS011;10371;49.042;8.002;2023-04-25T00:00:11;4.20;;;3.90;;
20423;SDS011;10371;49.042;8.002;2023-04-25T00:01:12;4.77;;;4.37;;
20423;SDS011;10371;49.042;8.002;2023-04-25T00:02:13;4.10;;;3.77;;
20423;SDS011;10371;49.042;8.002;2023-04-25T00:03:14;5.17;;;4.10;;
20423;SDS011;10371;49.042;8.002;2023-04-25T00:04:14;5.57;;;4.00;;
20423;SDS011;10371;49.042;8.002;2023-04-25T00:05:14;4.40;;;4.10;;
20423;SDS011;10371;49.042;8.002;2023-04-25T00:06:16;4.20;;;3.90;;
20423;SDS011;10371;49.042;8.002;2023-04-25T00:07:17;5.87;;;4.43;;
20423;SDS011;10371;49.042;8.002;2023-04-25T00:08:18;4.23;;;3.93;;
20423;SDS011;10371;49.042;8.002;2023-04-25T00:09:18;4.10;;;3.80;;
20423;SDS011;10371;49.042;8.002;2023-04-25T00:10:19;4.90;;;4.40;;
20423;SDS011;10371;49.042;8.002;2023-04-25T00:11:20;4.60;;;4.23;;
20423;SDS011;10371;49.042;8.002;2023-04-25T00:12:20;4.63;;;4.23;;
20423;SDS011;10371;49.042;8.002;2023-04-25T00:13:22;5.53;;;4.73;;
20423;SDS011;10371;49.042;8.002;2023-04-25T00:14:23;4.23;;;3.93;;
20423;SDS011;10371;49.042;8.002;2023-04-25T00:15:23;4.30;;;4.00;;
20423;SDS011;10371;49.042;8.002;2023-04-25T00:16:24;4.60;;;4.20;;
20423;SDS011;10371;49.042;8.002;2023-04-25T00:17:24;4.77;;;4.27;;
20423;SDS011;10371;49.042;8.002;2023-04-25T00:18:24;3.90;;;3.60;;
20423;SDS011;10371;49.042;8.002;2023-04-25T00:19:28;5.27;;;3.97;;
20423;SDS011;10371;49.042;8.002;2023-04-25T00:20:29;4.33;;;3.93;;
20423;SDS011;10371;49.042;8.002;2023-04-25T00:21:30;4.10;;;3.80;;
20423;SDS011;10371;49.042;8.002;2023-04-25T00:22:32;4.10;;;3.70;;
20423;SDS011;10371;49.042;8.002;2023-04-25T00:23:34;4.50;;;4.20;;
20423;SDS011;10371;49.042;8.002;2023-04-25T00:24:36;4.73;;;4.33;;
20423;SDS011;10371;49.042;8.002;2023-04-25T00:25:36;4.50;;;4.10;;
20423;SDS011;10371;49.042;8.002;2023-04-25T00:26:36;4.50;;;4.10;;
20423;SDS011;10371;49.042;8.002;2023-04-25T00:27:37;5.93;;;4.27;;
20423;SDS011;10371;49.042;8.002;2023-04-25T00:28:39;4.97;;;4.37;;
20423;SDS011;10371;49.042;8.002;2023-04-25T00:29:40;4.63;;;4.23;;
20423;SDS011;10371;49.042;8.002;2023-04-25T00:30:42;5.03;;;4.63;;
20423;SDS011;10371;49.042;8.002;2023-04-25T00:31:43;5.73;;;5.03;;
20423;SDS011;10371;49.042;8.002;2023-04-25T00:32:43;5.80;;;5.10;;
20423;SDS011;10371;49.042;8.002;2023-04-25T00:33:44;5.23;;;4.73;;
20423;SDS011;10371;49.042;8.002;2023-04-25T00:34:44;5.23;;;4.83;;
20423;SDS011;10371;49.042;8.002;2023-04-25T00:35:44;5.30;;;4.80;;
20423;SDS011;10371;49.042;8.002;2023-04-25T00:36:45;5.47;;;4.57;;
20423;SDS011;10371;49.042;8.002;2023-04-25T00:37:45;4.73;;;4.37;;
20423;SDS011;10371;49.042;8.002;2023-04-25T00:38:45;5.37;;;4.83;;
20423;SDS011;10371;49.042;8.002;2023-04-25T00:39:46;6.93;;;4.70;;
20423;SDS011;10371;49.042;8.002;2023-04-25T00:40:46;4.87;;;4.47;;
20423;SDS011;10371;49.042;8.002;2023-04-25T00:41:46;5.40;;;4.90;;
20423;SDS011;10371;49.042;8.002;2023-04-25T00:42:48;5.03;;;4.63;;
20423;SDS011;10371;49.042;8.002;2023-04-25T00:43:49;5.80;;;5.30;;
20423;SDS011;10371;49.042;8.002;2023-04-25T00:44:51;5.70;;;5.20;;
20423;SDS011;10371;49.042;8.002;2023-04-25T00:45:53;5.80;;;5.30;;
20423;SDS011;10371;49.042;8.002;2023-04-25T00:46:53;5.37;;;4.87;;
20423;SDS011;10371;49.042;8.002;2023-04-25T00:47:54;6.20;;;5.60;;
20423;SDS011;10371;49.042;8.002;2023-04-25T00:48:55;6.30;;;5.70;;
20423;SDS011;10371;49.042;8.002;2023-04-25T00:49:55;6.13;;;5.53;;
20423;SDS011;10371;49.042;8.002;2023-04-25T00:50:56;6.20;;;5.60;;
20423;SDS011;10371;49.042;8.002;2023-04-25T00:51:58;6.47;;;5.97;;
20423;SDS011;10371;49.042;8.002;2023-04-25T00:52:59;5.43;;;4.97;;
20423;SDS011;10371;49.042;8.002;2023-04-25T00:54:00;6.00;;;5.40;;
20423;SDS011;10371;49.042;8.002;2023-04-25T00:55:01;5.83;;;5.33;;
20423;SDS011;10371;49.042;8.002;2023-04-25T00:56:02;5.80;;;5.30;;
20423;SDS011;10371;49.042;8.002;2023-04-25T00:57:02;5.60;;;5.10;;
20423;SDS011;10371;49.042;8.002;2023-04-25T00:58:02;5.70;;;5.23;;
20423;SDS011;10371;49.042;8.002;2023-04-25T00:59:03;6.17;;;5.10;;
20423;SDS011;10371;49.042;8.002;2023-04-25T01:00:04;5.47;;;5.03;;
20423;SDS011;10371;49.042;8.002;2023-04-25T01:01:06;5.37;;;4.87;;
20423;SDS011;10371;49.042;8.002;2023-04-25T01:02:08;5.90;;;5.40;;
20423;SDS011;10371;49.042;8.002;2023-04-25T01:03:09;5.87;;;5.27;;
20423;SDS011;10371;49.042;8.002;2023-04-25T01:04:10;5.70;;;5.10;;
20423;SDS011;10371;49.042;8.002;2023-04-25T01:05:10;4.93;;;4.50;;
20423;SDS011;10371;49.042;8.002;2023-04-25T01:06:12;5.23;;;4.83;;
20423;SDS011;10371;49.042;8.002;2023-04-25T01:07:12;4.63;;;4.33;;
20423;SDS011;10371;49.042;8.002;2023-04-25T01:08:13;4.70;;;4.30;;
20423;SDS011;10371;49.042;8.002;2023-04-25T01:09:13;4.70;;;4.30;;
20423;SDS011;10371;49.042;8.002;2023-04-25T01:10:14;4.50;;;4.10;;
20423;SDS011;10371;49.042;8.002;2023-04-25T01:11:15;4.50;;;4.10;;
20423;SDS011;10371;49.042;8.002;2023-04-25T01:12:15;6.30;;;4.50;;
20423;SDS011;10371;49.042;8.002;2023-04-25T01:13:15;4.80;;;4.40;;
20423;SDS011;10371;49.042;8.002;2023-04-25T01:14:16;4.63;;;4.27;;
20423;SDS011;10371;49.042;8.002;2023-04-25T01:15:16;4.63;;;4.33;;
20423;SDS011;10371;49.042;8.002;2023-04-25T01:16:17;4.30;;;4.00;;
20423;SDS011;10371;49.042;8.002;2023-04-25T01:17:17;4.80;;;4.40;;
20423;SDS011;10371;49.042;8.002;2023-04-25T01:18:19;4.33;;;4.03;;
20423;SDS011;10371;49.042;8.002;2023-04-25T01:19:20;5.00;;;4.60;;
20423;SDS011;10371;49.042;8.002;2023-04-25T01:20:21;4.50;;;4.20;;
20423;SDS011;10371;49.042;8.002;2023-04-25T01:21:22;4.47;;;4.07;;
20423;SDS011;10371;49.042;8.002;2023-04-25T01:22:26;4.53;;;4.23;;
20423;SDS011;10371;49.042;8.002;2023-04-25T01:23:26;4.93;;;4.57;;
20423;SDS011;10371;49.042;8.002;2023-04-25T01:24:27;4.63;;;4.27;;
20423;SDS011;10371;49.042;8.002;2023-04-25T01:25:27;5.10;;;4.70;;
20423;SDS011;10371;49.042;8.002;2023-04-25T01:26:28;5.20;;;4.80;;
20423;SDS011;10371;49.042;8.002;2023-04-25T01:27:29;4.67;;;4.27;;
20423;SDS011;10371;49.042;8.002;2023-04-25T01:28:30;4.77;;;4.37;;
20423;SDS011;10371;49.042;8.002;2023-04-25T01:29:31;4.87;;;4.47;;
20423;SDS011;10371;49.042;8.002;2023-04-25T01:30:32;4.83;;;4.43;;
20423;SDS011;10371;49.042;8.002;2023-04-25T01:31:32;4.40;;;4.00;;
20423;SDS011;10371;49.042;8.002;2023-04-25T01:32:34;4.50;;;4.10;;
20423;SDS011;10371;49.042;8.002;2023-04-25T01:33:38;4.20;;;3.80;;
20423;SDS011;10371;49.042;8.002;2023-04-25T01:34:38;4.10;;;3.80;;
20423;SDS011;10371;49.042;8.002;2023-04-25T01:35:39;3.83;;;3.53;;
20423;SDS011;10371;49.042;8.002;2023-04-25T01:36:40;5.17;;;4.30;;
20423;SDS011;10371;49.042;8.002;2023-04-25T01:37:41;4.53;;;4.13;;
20423;SDS011;10371;49.042;8.002;2023-04-25T01:38:43;4.23;;;3.90;;
20423;SDS011;10371;49.042;8.002;2023-04-25T01:39:44;4.43;;;4.10;;
20423;SDS011;10371;49.042;8.002;2023-04-25T01:40:45;4.20;;;3.87;;
20423;SDS011;10371;49.042;8.002;2023-04-25T01:41:47;4.33;;;4.03;;
20423;SDS011;10371;49.042;8.002;2023-04-25T01:42:47;4.20;;;3.90;;
20423;SDS011;10371;49.042;8.002;2023-04-25T01:43:48;4.20;;;3.90;;
20423;SDS011;10371;49.042;8.002;2023-04-25T01:44:48;4.17;;;3.87;;
20423;SDS011;10371;49.042;8.002;2023-04-25T01:45:49;3.70;;;3.50;;
20423;SDS011;10371;49.042;8.002;2023-04-25T01:46:49;4.17;;;3.87;;
20423;SDS011;10371;49.042;8.002;2023-04-25T01:47:49;4.13;;;3.73;;
20423;SDS011;10371;49.042;8.002;2023-04-25T01:48:50;4.47;;;4.07;;
20423;SDS011;10371;49.042;8.002;2023-04-25T01:49:50;3.93;;;3.60;;
20423;SDS011;10371;49.042;8.002;2023-04-25T01:50:51;3.90;;;3.60;;
20423;SDS011;10371;49.042;8.002;2023-04-25T01:51:51;4.10;;;3.70;;
20423;SDS011;10371;49.042;8.002;2023-04-25T01:52:51;4.00;;;3.70;;
20423;SDS011;10371;49.042;8.002;2023-04-25T01:53:52;3.80;;;3.50;;
20423;SDS011;10371;49.042;8.002;2023-04-25T01:54:54;4.10;;;3.77;;
20423;SDS011;10371;49.042;8.002;2023-04-25T01:55:55;3.93;;;3.60;;
20423;SDS011;10371;49.042;8.002;2023-04-25T01:56:56;4.23;;;3.93;;
20423;SDS011;10371;49.042;8.002;2023-04-25T01:57:57;4.10;;;3.80;;
20423;SDS011;10371;49.042;8.002;2023-04-25T01:58:58;4.03;;;3.70;;
20423;SDS011;10371;49.042;8.002;2023-04-25T02:00:00;3.90;;;3.60;;
20423;SDS011;10371;49.042;8.002;2023-04-25T02:01:03;3.70;;;3.50;;
20423;SDS011;10371;49.042;8.002;2023-04-25T02:02:03;4.33;;;3.93;;
20423;SDS011;10371;49.042;8.002;2023-04-25T02:03:04;4.10;;;3.80;;
20423;SDS011;10371;49.042;8.002;2023-04-25T02:04:05;4.00;;;3.60;;
20423;SDS011;10371;49.042;8.002;2023-04-25T02:05:05;4.30;;;3.90;;
20423;SDS011;10371;49.042;8.002;2023-04-25T02:06:06;4.37;;;3.97;;
20423;SDS011;10371;49.042;8.002;2023-04-25T02:07:06;4.70;;;4.20;;
20423;SDS011;10371;49.042;8.002;2023-04-25T02:08:07;3.70;;;3.40;;
20423;SDS011;10371;49.042;8.002;2023-04-25T02:09:08;4.17;;;3.77;;
20423;SDS011;10371;49.042;8.002;2023-04-25T02:10:09;4.33;;;4.03;;
20423;SDS011;10371;49.042;8.002;2023-04-25T02:11:09;3.93;;;3.70;;
20423;SDS011;10371;49.042;8.002;2023-04-25T02:12:10;4.20;;;3.90;;
20423;SDS011;10371;49.042;8.002;2023-04-25T02:13:10;4.40;;;4.10;;
20423;SDS011;10371;49.042;8.002;2023-04-25T02:14:11;4.10;;;3.80;;
20423;SDS011;10371;49.042;8.002;2023-04-25T02:15:11;4.43;;;4.03;;
20423;SDS011;10371;49.042;8.002;2023-04-25T02:16:11;4.43;;;4.13;;
20423;SDS011;10371;49.042;8.002;2023-04-25T02:17:13;3.73;;;3.43;;
20423;SDS011;10371;49.042;8.002;2023-04-25T02:18:13;4.43;;;4.03;;
20423;SDS011;10371;49.042;8.002;2023-04-25T02:19:16;4.23;;;3.93;;
20423;SDS011;10371;49.042;8.002;2023-04-25T02:20:16;4.43;;;4.13;;
20423;SDS011;10371;49.042;8.002;2023-04-25T02:21:17;4.10;;;3.80;;
20423;SDS011;10371;49.042;8.002;2023-04-25T02:22:17;4.00;;;3.70;;
20423;SDS011;10371;49.042;8.002;2023-04-25T02:23:17;5.00;;;4.60;;
20423;SDS011;10371;49.042;8.002;2023-04-25T02:24:19;4.10;;;3.80;;
20423;SDS011;10371;49.042;8.002;2023-04-25T02:25:19;4.33;;;4.03;;
20423;SDS011;10371;49.042;8.002;2023-04-25T02:26:20;4.20;;;3.90;;
20423;SDS011;10371;49.042;8.002;2023-04-25T02:27:20;4.07;;;3.67;;
20423;SDS011;10371;49.042;8.002;2023-04-25T02:28:21;4.60;;;4.30;;
20423;SDS011;10371;49.042;8.002;2023-04-25T02:29:21;4.60;;;4.30;;
20423;SDS011;10371;49.042;8.002;2023-04-25T02:30:21;4.20;;;3.90;;
20423;SDS011;10371;49.042;8.002;2023-04-25T02:31:22;3.90;;;3.60;;
20423;SDS011;10371;49.042;8.002;2023-04-25T02:32:22;4.43;;;4.03;;
20423;SDS011;10371;49.042;8.002;2023-04-25T02:33:22;4.23;;;3.93;;
20423;SDS011;10371;49.042;8.002;2023-04-25T02:34:23;6.50;;;4.27;;
20423;SDS011;10371;49.042;8.002;2023-04-25T02:35:23;4.20;;;3.80;;
20423;SDS011;10371;49.042;8.002;2023-04-25T02:36:23;4.40;;;4.10;;
20423;SDS011;10371;49.042;8.002;2023-04-25T02:37:24;4.43;;;4.07;;
20423;SDS011;10371;49.042;8.002;2023-04-25T02:38:24;4.20;;;3.87;;
20423;SDS011;10371;49.042;8.002;2023-04-25T02:39:25;4.43;;;4.03;;
20423;SDS011;10371;49.042;8.002;2023-04-25T02:40:27;4.40;;;4.00;;
20423;SDS011;10371;49.042;8.002;2023-04-25T02:41:27;3.70;;;3.40;;
20423;SDS011;10371;49.042;8.002;2023-04-25T02:42:27;4.20;;;3.80;;
20423;SDS011;10371;49.042;8.002;2023-04-25T02:43:27;4.10;;;3.80;;
20423;SDS011;10371;49.042;8.002;2023-04-25T02:44:28;4.30;;;3.90;;
20423;SDS011;10371;49.042;8.002;2023-04-25T02:45:28;4.50;;;4.10;;
20423;SDS011;10371;49.042;8.002;2023-04-25T02:46:28;4.57;;;4.27;;
20423;SDS011;10371;49.042;8.002;2023-04-25T02:47:29;5.47;;;3.73;;
20423;SDS011;10371;49.042;8.002;2023-04-25T02:48:29;4.27;;;3.97;;
20423;SDS011;10371;49.042;8.002;2023-04-25T02:49:30;4.30;;;3.90;;
20423;SDS011;10371;49.042;8.002;2023-04-25T02:50:30;4.37;;;3.97;;
20423;SDS011;10371;49.042;8.002;2023-04-25T02:51:30;4.70;;;4.30;;
20423;SDS011;10371;49.042;8.002;2023-04-25T02:52:31;4.23;;;3.93;;
20423;SDS011;10371;49.042;8.002;2023-04-25T02:53:31;4.63;;;4.33;;
20423;SDS011;10371;49.042;8.002;2023-04-25T02:54:31;4.30;;;3.73;;
20423;SDS011;10371;49.042;8.002;2023-04-25T02:55:32;4.83;;;4.50;;
20423;SDS011;10371;49.042;8.002;2023-04-25T02:56:32;4.53;;;4.13;;
20423;SDS011;10371;49.042;8.002;2023-04-25T02:57:32;5.77;;;4.33;;
20423;SDS011;10371;49.042;8.002;2023-04-25T02:58:33;4.90;;;4.40;;
20423;SDS011;10371;49.042;8.002;2023-04-25T02:59:33;4.50;;;4.10;;
20423;SDS011;10371;49.042;8.002;2023-04-25T03:00:34;4.57;;;4.27;;
20423;SDS011;10371;49.042;8.002;2023-04-25T03:01:34;4.87;;;4.47;;
20423;SDS011;10371;49.042;8.002;2023-04-25T03:02:35;4.70;;;4.40;;
20423;SDS011;10371;49.042;8.002;2023-04-25T03:03:35;4.90;;;4.40;;
20423;SDS011;10371;49.042;8.002;2023-04-25T03:04:35;4.50;;;4.13;;
20423;SDS011;10371;49.042;8.002;2023-04-25T03:05:35;4.73;;;4.43;;
20423;SDS011;10371;49.042;8.002;2023-04-25T03:06:36;4.43;;;4.13;;
20423;SDS011;10371;49.042;8.002;2023-04-25T03:07:36;4.33;;;4.03;;
20423;SDS011;10371;49.042;8.002;2023-04-25T03:08:36;4.77;;;4.47;;
20423;SDS011;10371;49.042;8.002;2023-04-25T03:09:36;4.27;;;3.97;;
20423;SDS011;10371;49.042;8.002;2023-04-25T03:10:37;5.03;;;4.63;;
20423;SDS011;10371;49.042;8.002;2023-04-25T03:11:38;5.00;;;4.60;;
20423;SDS011;10371;49.042;8.002;2023-04-25T03:12:38;4.57;;;4.27;;
20423;SDS011;10371;49.042;8.002;2023-04-25T03:13:39;5.03;;;4.63;;
20423;SDS011;10371;49.042;8.002;2023-04-25T03:14:39;4.20;;;3.90;;
20423;SDS011;10371;49.042;8.002;2023-04-25T03:15:39;4.50;;;4.20;;
20423;SDS011;10371;49.042;8.002;2023-04-25T03:16:40;5.40;;;5.00;;
20423;SDS011;10371;49.042;8.002;2023-04-25T03:17:40;6.20;;;4.23;;
20423;SDS011;10371;49.042;8.002;2023-04-25T03:18:40;4.70;;;4.40;;
20423;SDS011;10371;49.042;8.002;2023-04-25T03:19:41;4.80;;;4.40;;
20423;SDS011;10371;49.042;8.002;2023-04-25T03:20:41;4.93;;;4.53;;
20423;SDS011;10371;49.042;8.002;2023-04-25T03:21:41;5.17;;;4.77;;
20423;SDS011;10371;49.042;8.002;2023-04-25T03:22:43;4.80;;;4.40;;
20423;SDS011;10371;49.042;8.002;2023-04-25T03:23:44;4.80;;;4.50;;
20423;SDS011;10371;49.042;8.002;2023-04-25T03:24:44;4.97;;;4.57;;
20423;SDS011;10371;49.042;8.002;2023-04-25T03:25:45;4.77;;;4.37;;
20423;SDS011;10371;49.042;8.002;2023-04-25T03:26:45;4.70;;;4.40;;
20423;SDS011;10371;49.042;8.002;2023-04-25T03:27:45;4.77;;;4.37;;
20423;SDS011;10371;49.042;8.002;2023-04-25T03:28:46;4.90;;;4.50;;
20423;SDS011;10371;49.042;8.002;2023-04-25T03:29:46;5.20;;;4.70;;
20423;SDS011;10371;49.042;8.002;2023-04-25T03:30:46;4.37;;;4.03;;
20423;SDS011;10371;49.042;8.002;2023-04-25T03:31:46;4.93;;;4.53;;
20423;SDS011;10371;49.042;8.002;2023-04-25T03:32:47;5.00;;;4.50;;
20423;SDS011;10371;49.042;8.002;2023-04-25T03:33:47;4.50;;;4.17;;
20423;SDS011;10371;49.042;8.002;2023-04-25T03:34:48;4.53;;;4.23;;
20423;SDS011;10371;49.042;8.002;2023-04-25T03:35:48;4.60;;;4.20;;
20423;SDS011;10371;49.042;8.002;2023-04-25T03:36:49;4.93;;;4.53;;
20423;SDS011;10371;49.042;8.002;2023-04-25T03:37:50;4.67;;;4.30;;
20423;SDS011;10371;49.042;8.002;2023-04-25T03:38:50;4.37;;;4.07;;
20423;SDS011;10371;49.042;8.002;2023-04-25T03:39:50;5.50;;;4.50;;
20423;SDS011;10371;49.042;8.002;2023-04-25T03:40:51;4.90;;;4.40;;
20423;SDS011;10371;49.042;8.002;2023-04-25T03:41:51;4.80;;;4.40;;
20423;SDS011;10371;49.042;8.002;2023-04-25T03:42:52;4.87;;;4.40;;
20423;SDS011;10371;49.042;8.002;2023-04-25T03:43:52;5.60;;;5.07;;
20423;SDS011;10371;49.042;8.002;2023-04-25T03:44:52;6.37;;;5.80;;
20423;SDS011;10371;49.042;8.002;2023-04-25T03:45:53;6.30;;;5.80;;
20423;SDS011;10371;49.042;8.002;2023-04-25T03:46:53;5.63;;;5.23;;
20423;SDS011;10371;49.042;8.002;2023-04-25T03:47:53;6.00;;;5.50;;
20423;SDS011;10371;49.042;8.002;2023-04-25T03:48:53;6.27;;;5.70;;
20423;SDS011;10371;49.042;8.002;2023-04-25T03:49:54;6.00;;;5.50;;
20423;SDS011;10371;49.042;8.002;2023-04-25T03:50:54;6.20;;;5.70;;
20423;SDS011;10371;49.042;8.002;2023-04-25T03:51:55;5.87;;;5.47;;
20423;SDS011;10371;49.042;8.002;2023-04-25T03:52:55;5.60;;;5.20;;
20423;SDS011;10371;49.042;8.002;2023-04-25T03:53:55;6.33;;;5.73;;
20423;SDS011;10371;49.042;8.002;2023-04-25T03:54:56;5.43;;;5.03;;
20423;SDS011;10371;49.042;8.002;2023-04-25T03:55:56;5.23;;;4.83;;
20423;SDS011;10371;49.042;8.002;2023-04-25T03:56:56;5.70;;;5.20;;
20423;SDS011;10371;49.042;8.002;2023-04-25T03:57:57;5.03;;;4.63;;
20423;SDS011;10371;49.042;8.002;2023-04-25T03:58:58;5.53;;;5.03;;
20423;SDS011;10371;49.042;8.002;2023-04-25T03:59:58;5.30;;;4.90;;
20423;SDS011;10371;49.042;8.002;2023-04-25T04:04:17;5.13;;;4.70;;
20423;SDS011;10371;49.042;8.002;2023-04-25T04:05:18;5.20;;;4.80;;
20423;SDS011;10371;49.042;8.002;2023-04-25T04:06:18;5.50;;;5.00;;
20423;SDS011;10371;49.042;8.002;2023-04-25T04:07:20;5.50;;;5.00;;
20423;SDS011;10371;49.042;8.002;2023-04-25T04:08:20;4.83;;;4.47;;
20423;SDS011;10371;49.042;8.002;2023-04-25T04:09:21;5.67;;;5.17;;
20423;SDS011;10371;49.042;8.002;2023-04-25T04:10:21;5.13;;;4.73;;
20423;SDS011;10371;49.042;8.002;2023-04-25T04:11:21;4.73;;;4.43;;
20423;SDS011;10371;49.042;8.002;2023-04-25T04:12:22;5.40;;;5.00;;
20423;SDS011;10371;49.042;8.002;2023-04-25T04:13:22;4.93;;;4.53;;
20423;SDS011;10371;49.042;8.002;2023-04-25T04:14:22;4.67;;;4.37;;
20423;SDS011;10371;49.042;8.002;2023-04-25T04:15:22;4.67;;;4.33;;
20423;SDS011;10371;49.042;8.002;2023-04-25T04:16:23;5.20;;;4.47;;
20423;SDS011;10371;49.042;8.002;2023-04-25T04:17:23;5.30;;;4.80;;
20423;SDS011;10371;49.042;8.002;2023-04-25T04:18:23;4.80;;;4.40;;
20423;SDS011;10371;49.042;8.002;2023-04-25T04:19:23;4.57;;;4.27;;
20423;SDS011;10371;49.042;8.002;2023-04-25T04:20:24;5.30;;;4.90;;
20423;SDS011;10371;49.042;8.002;2023-04-25T04:21:24;4.70;;;4.30;;
20423;SDS011;10371;49.042;8.002;2023-04-25T04:22:24;5.03;;;4.63;;
20423;SDS011;10371;49.042;8.002;2023-04-25T04:23:25;5.20;;;4.70;;
20423;SDS011;10371;49.042;8.002;2023-04-25T04:24:27;5.90;;;5.10;;
20423;SDS011;10371;49.042;8.002;2023-04-25T04:25:27;4.97;;;4.57;;
20423;SDS011;10371;49.042;8.002;2023-04-25T04:26:28;5.83;;;4.80;;
20423;SDS011;10371;49.042;8.002;2023-04-25T04:27:28;5.23;;;4.83;;
20423;SDS011;10371;49.042;8.002;2023-04-25T04:28:29;1828.30;;;999.90;;
20423;SDS011;10371;49.042;8.002;2023-04-25T04:29:29;1043.63;;;935.33;;
20423;SDS011;10371;49.042;8.002;2023-04-25T04:30:30;430.87;;;402.17;;
20423;SDS011;10371;49.042;8.002;2023-04-25T04:31:30;132.57;;;124.23;;
20423;SDS011;10371;49.042;8.002;2023-04-25T04:32:32;10.30;;;9.50;;
20423;SDS011;10371;49.042;8.002;2023-04-25T04:33:34;6.03;;;5.43;;
20423;SDS011;10371;49.042;8.002;2023-04-25T04:34:34;6.50;;;5.80;;
20423;SDS011;10371;49.042;8.002;2023-04-25T04:35:35;5.90;;;5.40;;
20423;SDS011;10371;49.042;8.002;2023-04-25T04:36:35;5.37;;;4.97;;
20423;SDS011;10371;49.042;8.002;2023-04-25T04:37:35;5.40;;;4.87;;
20423;SDS011;10371;49.042;8.002;2023-04-25T04:38:36;5.30;;;4.90;;
20423;SDS011;10371;49.042;8.002;2023-04-25T04:39:37;5.50;;;5.00;;
20423;SDS011;10371;49.042;8.002;2023-04-25T04:40:37;5.50;;;5.00;;
20423;SDS011;10371;49.042;8.002;2023-04-25T04:41:37;5.57;;;5.17;;
20423;SDS011;10371;49.042;8.002;2023-04-25T04:42:38;5.83;;;5.33;;
20423;SDS011;10371;49.042;8.002;2023-04-25T04:43:38;5.23;;;4.83;;
20423;SDS011;10371;49.042;8.002;2023-04-25T04:44:39;5.33;;;4.93;;
20423;SDS011;10371;49.042;8.002;2023-04-25T04:45:39;5.73;;;5.23;;
20423;SDS011;10371;49.042;8.002;2023-04-25T04:46:40;5.50;;;5.10;;
20423;SDS011;10371;49.042;8.002;2023-04-25T04:47:44;5.80;;;5.30;;
20423;SDS011;10371;49.042;8.002;2023-04-25T04:48:45;6.27;;;5.77;;
20423;SDS011;10371;49.042;8.002;2023-04-25T04:49:45;7.33;;;6.63;;
20423;SDS011;10371;49.042;8.002;2023-04-25T04:50:46;6.27;;;5.77;;
20423;SDS011;10371;49.042;8.002;2023-04-25T04:51:46;7.00;;;5.63;;
20423;SDS011;10371;49.042;8.002;2023-04-25T04:52:46;5.40;;;4.90;;
20423;SDS011;10371;49.042;8.002;2023-04-25T04:53:47;5.53;;;4.63;;
20423;SDS011;10371;49.042;8.002;2023-04-25T04:54:47;4.93;;;4.57;;
20423;SDS011;10371;49.042;8.002;2023-04-25T04:55:47;5.13;;;4.63;;
20423;SDS011;10371;49.042;8.002;2023-04-25T04:56:47;4.70;;;4.30;;
20423;SDS011;10371;49.042;8.002;2023-04-25T04:57:48;4.90;;;4.50;;
20423;SDS011;10371;49.042;8.002;2023-04-25T04:58:48;4.30;;;4.00;;
20423;SDS011;10371;49.042;8.002;2023-04-25T04:59:49;4.27;;;3.97;;
20423;SDS011;10371;49.042;8.002;2023-04-25T05:00:50;4.30;;;4.00;;
20423;SDS011;10371;49.042;8.002;2023-04-25T05:01:50;4.70;;;4.30;;
20423;SDS011;10371;49.042;8.002;2023-04-25T05:02:50;4.47;;;4.10;;
20423;SDS011;10371;49.042;8.002;2023-04-25T05:03:51;4.50;;;4.20;;
20423;SDS011;10371;49.042;8.002;2023-04-25T05:04:51;4.37;;;4.07;;
20423;SDS011;10371;49.042;8.002;2023-04-25T05:05:52;4.20;;;3.90;;
20423;SDS011;10371;49.042;8.002;2023-04-25T05:06:52;4.00;;;3.70;;
20423;SDS011;10371;49.042;8.002;2023-04-25T05:07:52;4.73;;;4.23;;
20423;SDS011;10371;49.042;8.002;2023-04-25T05:08:53;4.27;;;3.97;;
20423;SDS011;10371;49.042;8.002;2023-04-25T05:09:53;4.57;;;4.17;;
20423;SDS011;10371;49.042;8.002;2023-04-25T05:10:53;4.83;;;4.43;;
20423;SDS011;10371;49.042;8.002;2023-04-25T05:11:53;4.60;;;4.20;;
20423;SDS011;10371;49.042;8.002;2023-04-25T05:12:54;4.13;;;3.83;;
20423;SDS011;10371;49.042;8.002;2023-04-25T05:13:54;4.93;;;4.43;;
20423;SDS011;10371;49.042;8.002;2023-04-25T05:14:54;5.00;;;4.30;;
20423;SDS011;10371;49.042;8.002;2023-04-25T05:15:54;5.03;;;4.60;;
20423;SDS011;10371;49.042;8.002;2023-04-25T05:16:55;4.37;;;3.87;;
20423;SDS011;10371;49.042;8.002;2023-04-25T05:17:55;4.60;;;4.30;;
20423;SDS011;10371;49.042;8.002;2023-04-25T05:18:55;4.83;;;3.83;;
20423;SDS011;10371;49.042;8.002;2023-04-25T05:19:55;4.93;;;4.53;;
20423;SDS011;10371;49.042;8.002;2023-04-25T05:20:56;4.90;;;4.47;;
20423;SDS011;10371;49.042;8.002;2023-04-25T05:21:56;4.90;;;4.50;;
20423;SDS011;10371;49.042;8.002;2023-04-25T05:22:56;4.37;;;4.07;;
20423;SDS011;10371;49.042;8.002;2023-04-25T05:23:57;4.83;;;4.37;;
20423;SDS011;10371;49.042;8.002;2023-04-25T05:24:57;4.60;;;4.20;;
20423;SDS011;10371;49.042;8.002;2023-04-25T05:25:57;3.90;;;3.60;;
20423;SDS011;10371;49.042;8.002;2023-04-25T05:26:57;4.00;;;3.70;;
20423;SDS011;10371;49.042;8.002;2023-04-25T05:27:58;4.33;;;4.03;;
20423;SDS011;10371;49.042;8.002;2023-04-25T05:28:58;4.37;;;3.53;;
20423;SDS011;10371;49.042;8.002;2023-04-25T05:29:58;3.70;;;3.40;;
20423;SDS011;10371;49.042;8.002;2023-04-25T05:30:59;4.07;;;3.70;;
20423;SDS011;10371;49.042;8.002;2023-04-25T05:32:00;4.03;;;3.73;;
20423;SDS011;10371;49.042;8.002;2023-04-25T05:33:00;5.57;;;3.93;;
20423;SDS011;10371;49.042;8.002;2023-04-25T05:34:00;4.20;;;3.90;;
20423;SDS011;10371;49.042;8.002;2023-04-25T05:35:01;4.40;;;4.00;;
20423;SDS011;10371;49.042;8.002;2023-04-25T05:36:01;4.67;;;4.13;;
20423;SDS011;10371;49.042;8.002;2023-04-25T05:37:01;4.07;;;3.70;;
20423;SDS011;10371;49.042;8.002;2023-04-25T05:38:02;4.00;;;3.70;;
20423;SDS011;10371;49.042;8.002;2023-04-25T05:39:02;3.70;;;3.40;;
20423;SDS011;10371;49.042;8.002;2023-04-25T05:40:04;3.43;;;3.23;;
20423;SDS011;10371;49.042;8.002;2023-04-25T05:41:06;4.10;;;3.80;;
20423;SDS011;10371;49.042;8.002;2023-04-25T05:42:07;4.50;;;4.03;;
20423;SDS011;10371;49.042;8.002;2023-04-25T05:43:07;5.47;;;3.87;;
20423;SDS011;10371;49.042;8.002;2023-04-25T05:44:07;3.83;;;3.53;;
20423;SDS011;10371;49.042;8.002;2023-04-25T05:45:08;3.97;;;3.67;;
20423;SDS011;10371;49.042;8.002;2023-04-25T05:46:08;4.10;;;3.80;;
20423;SDS011;10371;49.042;8.002;2023-04-25T05:47:09;4.20;;;3.80;;
20423;SDS011;10371;49.042;8.002;2023-04-25T05:48:09;3.80;;;3.50;;
20423;SDS011;10371;49.042;8.002;2023-04-25T05:49:09;3.90;;;3.57;;
20423;SDS011;10371;49.042;8.002;2023-04-25T05:50:10;3.90;;;3.60;;
20423;SDS011;10371;49.042;8.002;2023-04-25T05:51:10;3.53;;;3.33;;
20423;SDS011;10371;49.042;8.002;2023-04-25T05:52:10;3.93;;;3.63;;
20423;SDS011;10371;49.042;8.002;2023-04-25T05:53:10;3.80;;;3.50;;
20423;SDS011;10371;49.042;8.002;2023-04-25T05:54:11;3.40;;;3.20;;
20423;SDS011;10371;49.042;8.002;2023-04-25T05:55:11;3.77;;;3.40;;
20423;SDS011;10371;49.042;8.002;2023-04-25T05:56:11;3.80;;;3.53;;
20423;SDS011;10371;49.042;8.002;2023-04-25T05:57:25;3.60;;;3.27;;
20423;SDS011;10371;49.042;8.002;2023-04-25T05:58:26;4.10;;;3.80;;
20423;SDS011;10371;49.042;8.002;2023-04-25T05:59:26;4.57;;;4.03;;
20423;SDS011;10371;49.042;8.002;2023-04-25T06:00:26;4.07;;;3.73;;
20423;SDS011;10371;49.042;8.002;2023-04-25T06:01:27;3.93;;;3.63;;
20423;SDS011;10371;49.042;8.002;2023-04-25T06:02:27;4.47;;;4.07;;
20423;SDS011;10371;49.042;8.002;2023-04-25T06:03:27;4.10;;;3.80;;
20423;SDS011;10371;49.042;8.002;2023-04-25T06:04:27;4.10;;;3.80;;
20423;SDS011;10371;49.042;8.002;2023-04-25T06:05:28;3.90;;;3.40;;
20423;SDS011;10371;49.042;8.002;2023-04-25T06:06:28;4.70;;;4.30;;
20423;SDS011;10371;49.042;8.002;2023-04-25T06:07:29;4.57;;;4.17;;
20423;SDS011;10371;49.042;8.002;2023-04-25T06:08:32;4.43;;;4.03;;